Slotergracht — PDBP — position and weather

sailwx.info

Track history (hours):
 
Tides and Currents Weather Stations Pressure Air Temp Water Temp Dewpoint Dewpoint Depression Visibility Wind Speed Wind Dir Waves Ship Positions

Slotergracht

Last reported at 2014-Jul-30 22:33 UTC. Time now 2014-Jul-30 23:20 UTC.
Position N 49°40' W 000°37'.

Length 168 m; beam 25 m.

Type: Cargo ship. MMSI: 246456000.

Date/timePositionNaut miles runAvg speedWind from/ knotsBaromVisibWave heightAir tempDewpointWater temp
2014-Jul-30 22:33N 49°40' W 000°37'1615.6
2014-Jul-30 21:33N 49°33' W 000°15'1414.5
2014-Jul-30 20:34N 49°29' E 000°06'3 2.7
2014-Jul-30 19:34N 49°29' E 000°10'0 0.3
2014-Jul-30 18:32N 49°29' E 000°11'0 0.0
2014-Jul-30 17:32N 49°29' E 000°11'0 0.0
2014-Jul-30 16:32N 49°29' E 000°11'0 0.0
2014-Jul-30 15:32N 49°29' E 000°11'0 0.0
2014-Jul-30 14:32N 49°29' E 000°11'0 0.0
2014-Jul-30 13:32N 49°29' E 000°11'0 0.0
2014-Jul-30 12:32N 49°29' E 000°11'0 0.0
2014-Jul-30 11:32N 49°29' E 000°11'0 0.4
2014-Jul-30 10:33N 49°29' E 000°10'3 3.5
2014-Jul-30 09:33N 49°29' E 000°05'1212.1
2014-Jul-30 08:34N 49°37' W 000°10'6315.8
2014-Jul-30 04:33N 50°36' E 000°23'1818.2
2014-Jul-30 03:33N 50°45' E 000°49'3216.0
2014-Jul-30 01:33N 51°05' E 001°28'1515.0
2014-Jul-30 00:33N 51°14' E 001°47'1817.8
2014-Jul-29 23:32N 51°30' E 002°01'1919.1
2014-Jul-29 22:33N 51°44' E 002°20'1919.3
2014-Jul-29 21:33N 51°58' E 002°42'1918.9
2014-Jul-29 20:33N 52°13' E 003°01'2517.8
2014-Jul-29 19:10N 52°33' E 003°25'1116.9
2014-Jul-29 18:30N 52°42' E 003°36'3816.5
2014-Jul-29 16:13N 53°09' E 004°21'1317.6
2014-Jul-29 15:28N 53°21' E 004°30'1617.5
2014-Jul-29 14:33N 53°31' E 004°50'1918.7
2014-Jul-29 13:33N 53°37' E 005°20'1818.4
2014-Jul-29 12:33N 53°43' E 005°49'1312.6
2014-Jul-29 11:33N 53°40' E 006°10'1713.2
2014-Jul-29 10:14N 53°35' E 006°38'811.8
2014-Jul-29 09:33N 53°30' E 006°48'3 2.8
2014-Jul-29 08:33N 53°27' E 006°50'0 0.0
2014-Jul-29 07:30N 53°27' E 006°50'0 0.0
2014-Jul-29 06:30N 53°27' E 006°50'0 0.0
2014-Jul-29 05:24N 53°27' E 006°50'0 0.0
2014-Jul-29 04:24N 53°27' E 006°50'0 0.0
2014-Jul-29 03:32N 53°27' E 006°50'0 0.0
2014-Jul-29 02:30N 53°27' E 006°50'0 0.0
2014-Jul-29 01:32N 53°27' E 006°50'0 0.0
2014-Jul-29 00:32N 53°27' E 006°50'0 0.0
2014-Jul-28 23:23N 53°27' E 006°50'0 0.0
2014-Jul-28 22:32N 53°27' E 006°50'0 0.0
2014-Jul-28 21:32N 53°27' E 006°50'0 0.0
2014-Jul-28 20:29N 53°27' E 006°50'0 0.0
2014-Jul-28 19:32N 53°27' E 006°50'0 0.0
2014-Jul-28 18:32N 53°27' E 006°50'0 0.0
2014-Jul-28 17:32N 53°27' E 006°50'0 0.0
2014-Jul-28 16:26N 53°27' E 006°50'0 0.0
2014-Jul-28 15:32N 53°27' E 006°50'0 0.0
2014-Jul-28 14:29N 53°27' E 006°50'0 0.0
2014-Jul-28 13:29N 53°27' E 006°50'0 0.0
2014-Jul-28 12:29N 53°27' E 006°50'0 0.0
2014-Jul-28 11:32N 53°27' E 006°50'0 0.0
2014-Jul-28 10:32N 53°27' E 006°50'0 0.2
2014-Jul-28 09:34N 53°27' E 006°50'8 8.1
2014-Jul-28 08:32N 53°33' E 006°41'1410.3
2014-Jul-28 07:11N 53°37' E 006°18'2 2.5
2014-Jul-28 06:33N 53°37' E 006°16'0 0.1
2014-Jul-28 05:28N 53°37' E 006°15'0 0.0
2014-Jul-28 03:25N 53°37' E 006°15'0 0.0
2014-Jul-28 02:31N 53°37' E 006°15'0 0.0
2014-Jul-28 01:31N 53°37' E 006°15'0 0.0
2014-Jul-28 00:10N 53°37' E 006°15'1810.0
2014-Jul-27 22:21N 53°51' E 006°34'3016.7
2014-Jul-27 20:33N 53°59' E 007°23'1717.1
2014-Jul-27 19:33N 54°01' E 007°52'1717.1
2014-Jul-27 18:33N 53°59' E 008°21'1817.7
2014-Jul-27 17:34N 53°51' E 008°47'1313.2
2014-Jul-27 16:33N 53°54' E 009°09'3 3.3
2014-Jul-27 15:33N 53°56' E 009°13'7 6.9
2014-Jul-27 14:32N 54°02' E 009°18'7 6.7
2014-Jul-27 13:29N 54°09' E 009°21'1 0.6
2014-Jul-27 12:31N 54°09' E 009°22'4 4.0
2014-Jul-27 11:32N 54°11' E 009°28'50 5.4
2014-Jul-27 02:17N 54°35' E 010°44'1216.3
2014-Jul-27 01:33N 54°36' E 011°04'1717.2
2014-Jul-27 00:33N 54°30' E 011°32'1716.8
2014-Jul-26 23:33N 54°26' E 011°60'1515.0
2014-Jul-26 22:33N 54°38' E 012°16'1917.4
2014-Jul-26 21:28N 54°48' E 012°43'1516.6
2014-Jul-26 20:33N 54°53' E 013°08'1717.2
2014-Jul-26 19:33N 54°59' E 013°36'2017.7
2014-Jul-26 18:25N 55°08' E 014°08'1718.5
2014-Jul-26 17:31N 55°21' E 014°27'2018.1
2014-Jul-26 16:25N 55°34' E 014°54'1618.1
2014-Jul-26 15:33N 55°41' E 015°18'1818.4
2014-Jul-26 14:33N 55°50' E 015°46'1818.4
2014-Jul-26 13:33N 55°59' E 016°15'1918.3
2014-Jul-26 12:31N 56°09' E 016°44'1918.1
2014-Jul-26 11:28N 56°27' E 016°56'2618.0
2014-Jul-26 10:03N 56°51' E 017°13'918.1
2014-Jul-26 09:33N 56°59' E 017°20'1818.0
2014-Jul-26 08:33N 57°16' E 017°32'1817.9
2014-Jul-26 07:33N 57°32' E 017°44'1818.2
2014-Jul-26 06:33N 57°48' E 018°03'1818.3
2014-Jul-26 05:33N 58°03' E 018°21'1818.0
2014-Jul-26 04:33N 58°19' E 018°39'1818.2
2014-Jul-26 03:33N 58°34' E 018°57'2018.1
2014-Jul-26 02:26N 58°52' E 019°17'1618.2
2014-Jul-26 01:33N 59°05' E 019°34'2018.2
2014-Jul-26 00:28N 59°23' E 019°52'8613.2
2014-Jul-25 18:00N 60°48' E 020°06'   999 / 11023.110.8 24.518.6
Track history (hours):
 
Tides and Currents Weather Stations Pressure Air Temp Water Temp Dewpoint Dewpoint Depression Visibility Wind Speed Wind Dir Waves Ship Positions

Slotergracht

Last reported at 2014-Jul-30 22:33 UTC. Time now 2014-Jul-30 23:20 UTC.
Position N 49°40' W 000°37'.

Length 168 m; beam 25 m.

Type: Cargo ship. MMSI: 246456000.

Date/timePositionNaut miles runAvg speedWind from/ knotsBaromVisibWave heightAir tempDewpointWater temp
2014-Jul-30 22:33N 49°40' W 000°37'1615.6
2014-Jul-30 21:33N 49°33' W 000°15'1414.5
2014-Jul-30 20:34N 49°29' E 000°06'3 2.7
2014-Jul-30 19:34N 49°29' E 000°10'0 0.3
2014-Jul-30 18:32N 49°29' E 000°11'0 0.0
2014-Jul-30 17:32N 49°29' E 000°11'0 0.0
2014-Jul-30 16:32N 49°29' E 000°11'0 0.0
2014-Jul-30 15:32N 49°29' E 000°11'0 0.0
2014-Jul-30 14:32N 49°29' E 000°11'0 0.0
2014-Jul-30 13:32N 49°29' E 000°11'0 0.0
2014-Jul-30 12:32N 49°29' E 000°11'0 0.0
2014-Jul-30 11:32N 49°29' E 000°11'0 0.4
2014-Jul-30 10:33N 49°29' E 000°10'3 3.5
2014-Jul-30 09:33N 49°29' E 000°05'1212.1
2014-Jul-30 08:34N 49°37' W 000°10'6315.8
2014-Jul-30 04:33N 50°36' E 000°23'1818.2
2014-Jul-30 03:33N 50°45' E 000°49'3216.0
2014-Jul-30 01:33N 51°05' E 001°28'1515.0
2014-Jul-30 00:33N 51°14' E 001°47'1817.8
2014-Jul-29 23:32N 51°30' E 002°01'1919.1
2014-Jul-29 22:33N 51°44' E 002°20'1919.3
2014-Jul-29 21:33N 51°58' E 002°42'1918.9
2014-Jul-29 20:33N 52°13' E 003°01'2517.8
2014-Jul-29 19:10N 52°33' E 003°25'1116.9
2014-Jul-29 18:30N 52°42' E 003°36'3816.5
2014-Jul-29 16:13N 53°09' E 004°21'1317.6
2014-Jul-29 15:28N 53°21' E 004°30'1617.5
2014-Jul-29 14:33N 53°31' E 004°50'1918.7
2014-Jul-29 13:33N 53°37' E 005°20'1818.4
2014-Jul-29 12:33N 53°43' E 005°49'1312.6
2014-Jul-29 11:33N 53°40' E 006°10'1713.2
2014-Jul-29 10:14N 53°35' E 006°38'811.8
2014-Jul-29 09:33N 53°30' E 006°48'3 2.8
2014-Jul-29 08:33N 53°27' E 006°50'0 0.0
2014-Jul-29 07:30N 53°27' E 006°50'0 0.0
2014-Jul-29 06:30N 53°27' E 006°50'0 0.0
2014-Jul-29 05:24N 53°27' E 006°50'0 0.0
2014-Jul-29 04:24N 53°27' E 006°50'0 0.0
2014-Jul-29 03:32N 53°27' E 006°50'0 0.0
2014-Jul-29 02:30N 53°27' E 006°50'0 0.0
2014-Jul-29 01:32N 53°27' E 006°50'0 0.0
2014-Jul-29 00:32N 53°27' E 006°50'0 0.0
2014-Jul-28 23:23N 53°27' E 006°50'0 0.0
2014-Jul-28 22:32N 53°27' E 006°50'0 0.0
2014-Jul-28 21:32N 53°27' E 006°50'0 0.0
2014-Jul-28 20:29N 53°27' E 006°50'0 0.0
2014-Jul-28 19:32N 53°27' E 006°50'0 0.0
2014-Jul-28 18:32N 53°27' E 006°50'0 0.0
2014-Jul-28 17:32N 53°27' E 006°50'0 0.0
2014-Jul-28 16:26N 53°27' E 006°50'0 0.0
2014-Jul-28 15:32N 53°27' E 006°50'0 0.0
2014-Jul-28 14:29N 53°27' E 006°50'0 0.0
2014-Jul-28 13:29N 53°27' E 006°50'0 0.0
2014-Jul-28 12:29N 53°27' E 006°50'0 0.0
2014-Jul-28 11:32N 53°27' E 006°50'0 0.0
2014-Jul-28 10:32N 53°27' E 006°50'0 0.2
2014-Jul-28 09:34N 53°27' E 006°50'8 8.1
2014-Jul-28 08:32N 53°33' E 006°41'1410.3
2014-Jul-28 07:11N 53°37' E 006°18'2 2.5
2014-Jul-28 06:33N 53°37' E 006°16'0 0.1
2014-Jul-28 05:28N 53°37' E 006°15'0 0.0
2014-Jul-28 03:25N 53°37' E 006°15'0 0.0
2014-Jul-28 02:31N 53°37' E 006°15'0 0.0
2014-Jul-28 01:31N 53°37' E 006°15'0 0.0
2014-Jul-28 00:10N 53°37' E 006°15'1810.0
2014-Jul-27 22:21N 53°51' E 006°34'3016.7
2014-Jul-27 20:33N 53°59' E 007°23'1717.1
2014-Jul-27 19:33N 54°01' E 007°52'1717.1
2014-Jul-27 18:33N 53°59' E 008°21'1817.7
2014-Jul-27 17:34N 53°51' E 008°47'1313.2
2014-Jul-27 16:33N 53°54' E 009°09'3 3.3
2014-Jul-27 15:33N 53°56' E 009°13'7 6.9
2014-Jul-27 14:32N 54°02' E 009°18'7 6.7
2014-Jul-27 13:29N 54°09' E 009°21'1 0.6
2014-Jul-27 12:31N 54°09' E 009°22'4 4.0
2014-Jul-27 11:32N 54°11' E 009°28'50 5.4
2014-Jul-27 02:17N 54°35' E 010°44'1216.3
2014-Jul-27 01:33N 54°36' E 011°04'1717.2
2014-Jul-27 00:33N 54°30' E 011°32'1716.8
2014-Jul-26 23:33N 54°26' E 011°60'1515.0
2014-Jul-26 22:33N 54°38' E 012°16'1917.4
2014-Jul-26 21:28N 54°48' E 012°43'1516.6
2014-Jul-26 20:33N 54°53' E 013°08'1717.2
2014-Jul-26 19:33N 54°59' E 013°36'2017.7
2014-Jul-26 18:25N 55°08' E 014°08'1718.5
2014-Jul-26 17:31N 55°21' E 014°27'2018.1
2014-Jul-26 16:25N 55°34' E 014°54'1618.1
2014-Jul-26 15:33N 55°41' E 015°18'1818.4
2014-Jul-26 14:33N 55°50' E 015°46'1818.4
2014-Jul-26 13:33N 55°59' E 016°15'1918.3
2014-Jul-26 12:31N 56°09' E 016°44'1918.1
2014-Jul-26 11:28N 56°27' E 016°56'2618.0
2014-Jul-26 10:03N 56°51' E 017°13'918.1
2014-Jul-26 09:33N 56°59' E 017°20'1818.0
2014-Jul-26 08:33N 57°16' E 017°32'1817.9
2014-Jul-26 07:33N 57°32' E 017°44'1818.2
2014-Jul-26 06:33N 57°48' E 018°03'1818.3
2014-Jul-26 05:33N 58°03' E 018°21'1818.0
2014-Jul-26 04:33N 58°19' E 018°39'1818.2
2014-Jul-26 03:33N 58°34' E 018°57'2018.1
2014-Jul-26 02:26N 58°52' E 019°17'1618.2
2014-Jul-26 01:33N 59°05' E 019°34'2018.2
2014-Jul-26 00:28N 59°23' E 019°52'8613.2
2014-Jul-25 18:00N 60°48' E 020°06'   999 / 11023.110.8 24.518.6

Dump ship's entire track history